createdAt,value
2023-02-19T00:01:31.305Z,85.61
2023-02-19T00:04:02.785Z,86.66
2023-02-19T00:06:32.488Z,88.09
2023-02-19T00:09:00.360Z,100.00
2023-02-19T00:11:30.304Z,96.16
2023-02-19T00:13:59.751Z,87.09
2023-02-19T00:16:28.683Z,84.41
2023-02-19T00:18:57.751Z,81.47
2023-02-19T00:21:27.314Z,84.13
2023-02-19T00:23:58.537Z,76.32
2023-02-19T00:26:26.126Z,78.42
2023-02-19T00:28:55.852Z,79.70
2023-02-19T00:31:25.532Z,82.41
2023-02-19T00:33:55.406Z,84.80
2023-02-19T00:36:23.994Z,83.84
2023-02-19T00:38:53.191Z,83.76
2023-02-19T00:41:22.865Z,87.33
2023-02-19T00:43:52.376Z,85.99
2023-02-19T00:46:22.429Z,85.17
2023-02-19T00:48:50.251Z,86.23
2023-02-19T00:51:17.887Z,86.10
2023-02-19T00:53:45.754Z,87.13
2023-02-19T00:56:14.677Z,86.24
2023-02-19T00:58:42.589Z,86.04
2023-02-19T01:01:10.931Z,84.59
2023-02-19T01:03:39.346Z,85.07
2023-02-19T01:06:09.158Z,88.55
2023-02-19T01:08:37.284Z,88.16
2023-02-19T01:11:07.293Z,90.61
2023-02-19T01:13:36.499Z,90.37
2023-02-19T01:16:04.665Z,93.61
2023-02-19T01:18:33.135Z,92.57
2023-02-19T01:21:00.624Z,90.96
2023-02-19T01:23:28.136Z,90.54
2023-02-19T01:25:55.543Z,91.40
2023-02-19T01:28:23.332Z,91.04
2023-02-19T01:30:52.160Z,93.43
2023-02-19T01:33:19.721Z,95.81
2023-02-19T01:35:47.209Z,96.52
2023-02-19T01:38:14.695Z,94.89
2023-02-19T01:40:42.091Z,94.41
2023-02-19T01:43:16.802Z,94.79
2023-02-19T01:45:46.105Z,93.94
2023-02-19T01:48:18.330Z,94.58
2023-02-19T01:50:50.831Z,93.92
2023-02-19T01:53:23.023Z,93.24
2023-02-19T01:55:54.868Z,94.10
2023-02-19T01:58:23.612Z,92.62
2023-02-19T02:00:51.840Z,92.12
2023-02-19T02:03:21.649Z,95.02
2023-02-19T02:05:56.920Z,95.63
2023-02-19T02:08:42.936Z,95.72
2023-02-19T02:11:10.825Z,95.78
2023-02-19T02:13:40.314Z,94.21
2023-02-19T02:16:18.412Z,95.15
2023-02-19T02:19:00.168Z,96.22
2023-02-19T02:21:47.050Z,94.97
2023-02-19T02:24:36.793Z,95.68
2023-02-19T02:27:29.020Z,96.11
2023-02-19T02:30:11.571Z,93.55
2023-02-19T02:32:53.229Z,90.29
2023-02-19T02:35:24.385Z,92.62
2023-02-19T02:37:54.432Z,93.74
2023-02-19T02:40:21.962Z,94.04
2023-02-19T02:42:49.429Z,92.51
2023-02-19T02:45:36.034Z,91.68
2023-02-19T02:48:19.241Z,94.32
2023-02-19T02:50:51.341Z,94.79
2023-02-19T02:53:39.697Z,95.30
2023-02-19T02:56:07.876Z,95.13
2023-02-19T02:58:36.098Z,95.15
2023-02-19T03:01:27.242Z,96.41
2023-02-19T03:04:02.246Z,96.27
2023-02-19T03:06:32.773Z,94.49
2023-02-19T03:09:06.165Z,94.48
2023-02-19T03:11:54.592Z,95.19
2023-02-19T03:14:43.594Z,94.46
2023-02-19T03:17:36.935Z,95.96
2023-02-19T03:20:09.963Z,95.32
2023-02-19T03:22:39.355Z,96.14
2023-02-19T03:25:29.180Z,95.64
2023-02-19T03:27:59.313Z,95.48
2023-02-19T03:30:32.205Z,95.99
2023-02-19T03:33:03.262Z,95.86
2023-02-19T03:35:34.085Z,97.06
2023-02-19T03:38:07.687Z,96.32
2023-02-19T03:40:41.459Z,96.41
2023-02-19T03:43:18.843Z,96.33
2023-02-19T03:45:54.431Z,96.47
2023-02-19T03:48:35.345Z,96.62
2023-02-19T03:51:13.934Z,96.54
2023-02-19T03:53:50.515Z,96.01
2023-02-19T03:56:23.663Z,96.60
2023-02-19T03:58:57.422Z,97.06
2023-02-19T04:01:31.248Z,97.48
2023-02-19T04:04:09.048Z,97.05
2023-02-19T04:06:39.894Z,97.31
2023-02-19T04:09:10.142Z,97.75
2023-02-19T04:11:38.525Z,97.81
2023-02-19T04:14:10.066Z,96.11
2023-02-19T04:16:41.836Z,95.36
2023-02-19T04:19:14.075Z,97.61
2023-02-19T04:21:43.072Z,98.08
2023-02-19T04:24:15.268Z,98.27
2023-02-19T04:26:44.177Z,97.98
2023-02-19T04:29:11.884Z,99.02
2023-02-19T04:31:39.707Z,99.36
2023-02-19T04:34:07.244Z,99.24
2023-02-19T04:36:36.413Z,98.27
2023-02-19T04:39:03.873Z,98.57
2023-02-19T04:41:31.516Z,100.00
2023-02-19T04:43:58.945Z,98.79
2023-02-19T04:46:26.560Z,98.08
2023-02-19T04:48:53.975Z,98.84
2023-02-19T04:51:21.401Z,99.20
2023-02-19T04:53:50.196Z,99.86
2023-02-19T04:56:18.497Z,98.63
2023-02-19T04:58:46.404Z,99.44
2023-02-19T05:01:14.588Z,99.55
2023-02-19T05:03:42.237Z,100.00
2023-02-19T05:06:12.194Z,100.00
2023-02-19T05:08:40.087Z,100.00
2023-02-19T05:11:11.238Z,99.04
2023-02-19T05:13:40.296Z,98.60
2023-02-19T05:16:10.444Z,100.00
2023-02-19T05:18:37.956Z,100.00
2023-02-19T05:21:05.891Z,100.00
2023-02-19T05:23:33.480Z,99.07
2023-02-19T05:26:04.932Z,99.93
2023-02-19T05:28:33.776Z,99.47
2023-02-19T05:31:05.773Z,99.77
2023-02-19T05:33:33.690Z,98.96
2023-02-19T05:36:05.117Z,99.18
2023-02-19T05:38:32.581Z,98.65
2023-02-19T05:41:09.336Z,98.60
2023-02-19T05:43:38.630Z,99.08
2023-02-19T05:46:06.357Z,98.76
2023-02-19T05:48:33.923Z,97.82
2023-02-19T05:51:05.155Z,97.07
2023-02-19T05:53:33.136Z,96.30
2023-02-19T05:56:00.961Z,97.48
2023-02-19T05:58:28.713Z,96.11
2023-02-19T06:00:57.525Z,97.41
2023-02-19T06:03:24.965Z,96.33
2023-02-19T06:05:52.406Z,93.21
2023-02-19T06:08:19.833Z,92.03
2023-02-19T06:10:47.232Z,90.61
2023-02-19T06:13:16.271Z,91.83
2023-02-19T06:15:45.251Z,88.96
2023-02-19T06:18:14.016Z,88.22
2023-02-19T06:20:41.433Z,87.08
2023-02-19T06:23:08.844Z,87.57
2023-02-19T06:25:36.252Z,89.73
2023-02-19T06:28:03.733Z,88.12
2023-02-19T06:30:31.240Z,88.86
2023-02-19T06:32:58.747Z,88.04
2023-02-19T06:35:27.524Z,89.51
2023-02-19T06:37:54.956Z,89.71
2023-02-19T06:40:22.368Z,90.26
2023-02-19T06:42:49.775Z,91.39
2023-02-19T06:45:17.186Z,91.68
2023-02-19T06:47:44.610Z,92.82
2023-02-19T06:50:12.067Z,92.41
2023-02-19T06:52:40.806Z,92.04
2023-02-19T06:55:08.400Z,90.88
2023-02-19T06:57:35.808Z,89.77
2023-02-19T07:00:04.595Z,88.82
2023-02-19T07:02:32.095Z,90.32
2023-02-19T07:04:59.524Z,90.50
2023-02-19T07:07:27.048Z,88.53
2023-02-19T07:09:55.852Z,87.85
2023-02-19T07:12:23.263Z,88.53
2023-02-19T07:14:50.667Z,87.07
2023-02-19T07:17:18.145Z,87.92
2023-02-19T07:19:45.551Z,87.24
2023-02-19T07:22:12.992Z,87.98
2023-02-19T07:24:40.426Z,87.79
2023-02-19T07:27:09.186Z,89.06
2023-02-19T07:29:36.607Z,90.36
2023-02-19T07:32:04.432Z,87.13
2023-02-19T07:34:31.956Z,88.96
2023-02-19T07:36:59.520Z,87.70
2023-02-19T07:39:27.092Z,87.92
2023-02-19T07:41:54.655Z,86.54
2023-02-19T07:44:23.421Z,87.26
2023-02-19T07:46:50.827Z,87.75
2023-02-19T07:49:18.520Z,87.36
2023-02-19T07:51:45.968Z,88.21
2023-02-19T07:54:13.602Z,89.40
2023-02-19T07:56:41.166Z,90.24
2023-02-19T07:59:08.787Z,89.19
2023-02-19T08:01:55.207Z,89.58
2023-02-19T08:04:22.797Z,89.74
2023-02-19T08:06:50.254Z,89.08
2023-02-19T08:09:17.672Z,89.43
2023-02-19T08:12:02.738Z,88.88
2023-02-19T08:14:30.513Z,90.27
2023-02-19T08:16:59.351Z,90.85
2023-02-19T08:19:26.841Z,88.02
2023-02-19T08:21:54.499Z,90.14
2023-02-19T08:24:21.942Z,91.92
2023-02-19T08:26:49.477Z,92.39
2023-02-19T08:29:17.106Z,93.46
2023-02-19T08:31:44.851Z,92.43
2023-02-19T08:34:13.697Z,92.56
2023-02-19T08:36:41.196Z,92.63
2023-02-19T08:39:08.673Z,92.79
2023-02-19T08:41:36.143Z,91.75
2023-02-19T08:44:03.579Z,91.22
2023-02-19T08:46:33.019Z,90.65
2023-02-19T08:49:01.512Z,90.90
2023-02-19T08:51:30.332Z,90.33
2023-02-19T08:53:57.734Z,91.96
2023-02-19T08:56:25.358Z,90.66
2023-02-19T08:58:52.808Z,90.93
2023-02-19T09:01:20.246Z,91.88
2023-02-19T09:03:47.786Z,91.37
2023-02-19T09:06:17.710Z,90.28
2023-02-19T09:08:46.976Z,89.90
2023-02-19T09:11:15.226Z,91.84
2023-02-19T09:13:43.301Z,90.55
2023-02-19T09:16:11.138Z,88.32
2023-02-19T09:18:38.551Z,87.28
2023-02-19T09:21:07.400Z,88.96
2023-02-19T09:23:35.968Z,89.54
2023-02-19T09:26:08.567Z,88.64
2023-02-19T09:28:37.196Z,89.16
2023-02-19T09:31:05.985Z,89.17
2023-02-19T09:33:33.685Z,86.76
2023-02-19T09:36:01.262Z,88.29
2023-02-19T09:38:31.065Z,89.16
2023-02-19T09:41:00.134Z,88.71
2023-02-19T09:43:30.104Z,88.71
2023-02-19T09:46:04.122Z,86.97
2023-02-19T09:48:32.001Z,87.53
2023-02-19T09:51:01.691Z,86.68
2023-02-19T09:53:40.185Z,88.07
2023-02-19T09:56:08.742Z,86.29
2023-02-19T09:58:44.829Z,85.28
2023-02-19T10:01:13.755Z,84.74
2023-02-19T10:03:44.810Z,85.53
2023-02-19T10:06:19.042Z,84.80
2023-02-19T10:08:46.802Z,83.36
2023-02-19T10:11:15.591Z,83.05
2023-02-19T10:13:48.827Z,83.35
2023-02-19T10:16:20.262Z,83.85
2023-02-19T10:18:48.281Z,83.90
2023-02-19T10:21:19.990Z,83.40
2023-02-19T10:23:50.413Z,81.95
2023-02-19T10:26:18.116Z,81.24
2023-02-19T10:28:46.940Z,81.53
2023-02-19T10:31:20.539Z,79.88
2023-02-19T10:33:53.374Z,81.88
2023-02-19T10:36:33.161Z,80.82
2023-02-19T10:39:02.950Z,82.22
2023-02-19T10:41:31.678Z,82.39
2023-02-19T10:44:07.071Z,81.45
2023-02-19T10:46:38.114Z,79.38
2023-02-19T10:49:16.247Z,79.44
2023-02-19T10:51:43.824Z,78.05
2023-02-19T10:54:19.716Z,76.79
2023-02-19T10:56:47.639Z,76.14
2023-02-19T10:59:24.635Z,77.45
2023-02-19T11:01:57.380Z,76.17
2023-02-19T11:04:25.981Z,76.01
2023-02-19T11:06:53.716Z,74.37
2023-02-19T11:09:27.916Z,75.46
2023-02-19T11:11:57.406Z,74.65
2023-02-19T11:14:28.891Z,75.30
2023-02-19T11:16:58.192Z,74.49
2023-02-19T11:19:32.871Z,74.62
2023-02-19T11:22:02.248Z,75.43
2023-02-19T11:24:35.259Z,74.81
2023-02-19T11:27:05.458Z,75.52
2023-02-19T11:29:35.599Z,74.88
2023-02-19T11:32:26.116Z,75.28
2023-02-19T11:34:54.024Z,74.93
2023-02-19T11:37:22.496Z,73.51
2023-02-19T11:39:52.142Z,73.55
2023-02-19T11:42:31.092Z,74.66
2023-02-19T11:45:13.932Z,74.69
2023-02-19T11:48:26.037Z,72.50
2023-02-19T11:51:02.914Z,72.22
2023-02-19T11:53:33.363Z,72.29
2023-02-19T11:56:16.923Z,72.74
2023-02-19T11:59:00.942Z,71.16
2023-02-19T12:01:47.015Z,71.21
2023-02-19T12:04:32.697Z,70.59
2023-02-19T12:07:12.515Z,69.73
2023-02-19T12:09:54.358Z,70.19
2023-02-19T12:12:37.656Z,69.80
2023-02-19T12:15:25.802Z,69.11
2023-02-19T12:18:16.062Z,69.24
2023-02-19T12:20:52.250Z,68.00
2023-02-19T12:23:49.602Z,68.44
2023-02-19T12:26:24.885Z,68.41
2023-02-19T12:29:25.695Z,68.85
2023-02-19T12:32:09.895Z,69.71
2023-02-19T12:35:09.767Z,70.16
2023-02-19T12:37:45.428Z,70.39
2023-02-19T12:40:42.894Z,70.20
2023-02-19T12:43:18.751Z,69.76
2023-02-19T12:45:52.233Z,70.19
2023-02-19T12:48:27.726Z,70.45
2023-02-19T12:51:00.283Z,70.16
2023-02-19T12:53:38.759Z,67.37
2023-02-19T12:56:14.318Z,66.58
2023-02-19T12:58:46.771Z,66.55
2023-02-19T13:01:20.631Z,67.15
2023-02-19T13:03:55.036Z,65.00
2023-02-19T13:06:34.370Z,63.80
2023-02-19T13:09:07.482Z,65.65
2023-02-19T13:11:39.509Z,66.17
2023-02-19T13:14:15.117Z,66.12
2023-02-19T13:16:46.752Z,66.56
2023-02-19T13:19:15.150Z,66.04
2023-02-19T13:22:05.764Z,65.86
2023-02-19T13:24:37.507Z,65.48
2023-02-19T13:27:20.942Z,66.76
2023-02-19T13:30:05.492Z,65.31
2023-02-19T13:32:53.511Z,65.05
2023-02-19T13:35:38.039Z,63.88
2023-02-19T13:38:09.885Z,64.87
2023-02-19T13:40:40.160Z,65.22
2023-02-19T13:43:20.484Z,64.63
2023-02-19T13:45:48.076Z,65.59
2023-02-19T13:48:26.293Z,64.79
2023-02-19T13:51:47.669Z,64.29
2023-02-19T13:54:22.504Z,65.18
2023-02-19T13:56:50.488Z,63.63
2023-02-19T13:59:25.837Z,63.34
2023-02-19T14:02:27.395Z,63.87
2023-02-19T14:04:57.121Z,63.26
2023-02-19T14:07:54.455Z,63.75
2023-02-19T14:11:02.098Z,62.88
2023-02-19T14:13:56.370Z,65.05
2023-02-19T14:16:32.676Z,64.83
2023-02-19T14:19:00.129Z,64.97
2023-02-19T14:21:36.545Z,64.94
2023-02-19T14:24:06.440Z,65.51
2023-02-19T14:26:35.455Z,64.21
2023-02-19T14:29:03.877Z,64.18
2023-02-19T14:31:33.001Z,62.69
2023-02-19T14:34:03.517Z,63.33
2023-02-19T14:36:36.454Z,63.68
2023-02-19T14:39:11.511Z,63.00
2023-02-19T14:41:41.872Z,64.14
2023-02-19T14:44:17.810Z,63.86
2023-02-19T14:46:52.847Z,64.20
2023-02-19T14:49:28.450Z,64.12
2023-02-19T14:52:00.322Z,64.46
2023-02-19T14:54:41.057Z,63.99
2023-02-19T14:57:16.703Z,64.53
2023-02-19T14:59:54.431Z,63.35
2023-02-19T15:02:24.043Z,63.37
2023-02-19T15:04:51.495Z,63.57
2023-02-19T15:07:23.811Z,64.45
2023-02-19T15:09:57.046Z,64.58
2023-02-19T15:12:26.382Z,63.68
2023-02-19T15:14:57.880Z,63.16
2023-02-19T15:17:27.904Z,63.24
2023-02-19T15:19:56.524Z,62.45
2023-02-19T15:22:28.214Z,61.65
2023-02-19T15:24:57.023Z,61.70
2023-02-19T15:27:26.453Z,61.13
2023-02-19T15:29:53.974Z,61.46
2023-02-19T15:32:23.247Z,61.05
2023-02-19T15:34:57.730Z,61.50
2023-02-19T15:37:27.666Z,60.95
2023-02-19T15:39:57.731Z,61.14
2023-02-19T15:42:27.814Z,61.96
2023-02-19T15:44:59.903Z,62.16
2023-02-19T15:47:33.941Z,62.24
2023-02-19T15:50:08.529Z,61.86
2023-02-19T15:52:44.749Z,62.04
2023-02-19T15:55:29.044Z,61.61
2023-02-19T15:58:04.190Z,62.83
2023-02-19T16:00:37.093Z,62.45
2023-02-19T16:03:05.795Z,62.50
2023-02-19T16:05:39.301Z,61.93
2023-02-19T16:08:18.399Z,62.13
2023-02-19T16:10:58.608Z,61.83
2023-02-19T16:13:27.432Z,62.02
2023-02-19T16:16:01.732Z,61.50
2023-02-19T16:18:29.419Z,61.70
2023-02-19T16:20:57.305Z,60.88
2023-02-19T16:23:25.474Z,62.02
2023-02-19T16:26:01.614Z,61.45
2023-02-19T16:28:31.543Z,62.18
2023-02-19T16:31:00.160Z,61.59
2023-02-19T16:33:46.136Z,61.30
2023-02-19T16:36:23.380Z,61.37
2023-02-19T16:39:15.463Z,62.20
2023-02-19T16:42:12.605Z,61.88
2023-02-19T16:44:40.049Z,60.76
2023-02-19T16:47:16.336Z,61.33
2023-02-19T16:49:44.222Z,62.02
2023-02-19T16:52:15.246Z,60.95
2023-02-19T16:54:42.659Z,62.88
2023-02-19T16:57:11.487Z,60.74
2023-02-19T16:59:38.902Z,60.28
2023-02-19T17:02:09.013Z,61.60
2023-02-19T17:04:36.505Z,61.52
2023-02-19T17:07:04.150Z,60.44
2023-02-19T17:09:31.658Z,60.39
2023-02-19T17:11:59.126Z,61.55
2023-02-19T17:14:27.943Z,61.49
2023-02-19T17:16:55.401Z,62.16
2023-02-19T17:19:22.888Z,61.87
2023-02-19T17:21:50.424Z,61.23
2023-02-19T17:24:18.358Z,61.58
2023-02-19T17:26:45.851Z,61.87
2023-02-19T17:29:18.015Z,62.03
2023-02-19T17:31:46.918Z,61.68
2023-02-19T17:34:14.458Z,62.58
2023-02-19T17:36:43.150Z,61.30
2023-02-19T17:39:15.135Z,62.09
2023-02-19T17:41:44.048Z,62.51
2023-02-19T17:44:12.130Z,62.83
2023-02-19T17:46:40.124Z,62.57
2023-02-19T17:49:10.916Z,62.59
2023-02-19T17:51:38.337Z,62.49
2023-02-19T17:54:08.234Z,65.49
2023-02-19T17:56:35.844Z,64.71
2023-02-19T17:59:03.444Z,63.33
2023-02-19T18:01:30.907Z,63.71
2023-02-19T18:03:58.377Z,63.90
2023-02-19T18:06:27.154Z,64.34
2023-02-19T18:08:54.710Z,64.53
2023-02-19T18:11:24.117Z,63.81
2023-02-19T18:13:52.539Z,64.17
2023-02-19T18:16:20.633Z,63.62
2023-02-19T18:18:48.077Z,63.50
2023-02-19T18:21:15.818Z,64.17
2023-02-19T18:23:46.053Z,64.34
2023-02-19T18:26:13.737Z,63.91
2023-02-19T18:28:41.173Z,63.76
2023-02-19T18:31:09.179Z,65.20
2023-02-19T18:33:36.824Z,65.00
2023-02-19T18:36:04.880Z,66.08
2023-02-19T18:38:32.345Z,65.24
2023-02-19T18:41:01.085Z,66.53
2023-02-19T18:43:28.607Z,64.52
2023-02-19T18:45:56.080Z,64.34
2023-02-19T18:48:23.702Z,64.20
2023-02-19T18:50:51.118Z,63.70
2023-02-19T18:53:18.541Z,64.19
2023-02-19T18:55:45.971Z,67.94
2023-02-19T18:58:14.701Z,66.02
2023-02-19T19:00:42.091Z,66.51
2023-02-19T19:03:09.556Z,65.63
2023-02-19T19:05:37.011Z,65.71
2023-02-19T19:08:04.957Z,67.09
2023-02-19T19:10:32.337Z,65.39
2023-02-19T19:12:59.816Z,65.24
2023-02-19T19:15:28.686Z,67.17
2023-02-19T19:17:56.207Z,65.19
2023-02-19T19:20:24.726Z,66.98
2023-02-19T19:22:53.133Z,67.63
2023-02-19T19:25:21.363Z,67.18
2023-02-19T19:27:50.520Z,66.16
2023-02-19T19:30:19.976Z,68.10
2023-02-19T19:32:50.302Z,67.47
2023-02-19T19:35:17.989Z,68.07
2023-02-19T19:37:45.658Z,67.63
2023-02-19T19:40:13.993Z,67.16
2023-02-19T19:42:43.020Z,66.84
2023-02-19T19:45:12.047Z,67.25
2023-02-19T19:47:39.489Z,66.76
2023-02-19T19:50:08.979Z,65.86
2023-02-19T19:52:36.428Z,66.24
2023-02-19T19:55:04.055Z,66.41
2023-02-19T19:57:31.483Z,66.47
2023-02-19T19:59:58.932Z,66.62
2023-02-19T20:02:26.531Z,67.37
2023-02-19T20:04:53.951Z,65.67
2023-02-19T20:07:22.752Z,66.24
2023-02-19T20:09:50.575Z,66.29
2023-02-19T20:12:18.815Z,66.77
2023-02-19T20:14:47.322Z,66.92
2023-02-19T20:17:15.416Z,66.27
2023-02-19T20:19:42.943Z,66.35
2023-02-19T20:22:10.355Z,67.18
2023-02-19T20:24:39.245Z,67.25
2023-02-19T20:27:06.696Z,67.87
2023-02-19T20:29:35.391Z,68.98
2023-02-19T20:32:03.763Z,67.68
2023-02-19T20:34:31.805Z,69.48
2023-02-19T20:36:59.942Z,67.93
2023-02-19T20:39:29.201Z,67.73
2023-02-19T20:41:59.542Z,68.06
2023-02-19T20:44:27.192Z,69.29
2023-02-19T20:46:55.115Z,68.57
2023-02-19T20:49:25.037Z,68.94
2023-02-19T20:51:55.168Z,67.62
2023-02-19T20:54:26.534Z,68.76
2023-02-19T20:56:55.830Z,68.68
2023-02-19T20:59:27.171Z,68.63
2023-02-19T21:01:54.698Z,68.41
2023-02-19T21:04:22.251Z,69.87
2023-02-19T21:06:52.112Z,69.58
2023-02-19T21:09:19.588Z,69.01
2023-02-19T21:11:48.118Z,69.21
2023-02-19T21:14:16.348Z,68.44
2023-02-19T21:16:45.473Z,69.48
2023-02-19T21:19:12.880Z,70.56
2023-02-19T21:21:40.453Z,69.84
2023-02-19T21:24:08.311Z,70.43
2023-02-19T21:26:37.845Z,70.05
2023-02-19T21:29:06.198Z,73.52
2023-02-19T21:31:38.058Z,71.70
2023-02-19T21:34:07.493Z,69.95
2023-02-19T21:36:35.271Z,73.41
2023-02-19T21:39:03.127Z,72.94
2023-02-19T21:41:30.654Z,74.24
2023-02-19T21:43:58.794Z,84.47
2023-02-19T21:46:26.676Z,78.60
2023-02-19T21:48:55.819Z,71.77
2023-02-19T21:51:31.024Z,83.03
2023-02-19T21:53:58.782Z,73.04
2023-02-19T21:56:28.589Z,65.04
2023-02-19T21:58:56.319Z,68.50
2023-02-19T22:01:25.242Z,69.28
2023-02-19T22:03:52.787Z,72.48
2023-02-19T22:06:22.574Z,70.34
2023-02-19T22:08:51.618Z,71.46
2023-02-19T22:11:19.261Z,70.34
2023-02-19T22:13:47.070Z,71.37
2023-02-19T22:16:15.195Z,69.99
2023-02-19T22:18:47.357Z,70.57
2023-02-19T22:21:14.992Z,73.46
2023-02-19T22:23:46.278Z,72.65
2023-02-19T22:26:24.284Z,75.57
2023-02-19T22:28:52.380Z,73.61
2023-02-19T22:31:22.318Z,73.00
2023-02-19T22:33:50.116Z,74.23
2023-02-19T22:36:19.625Z,77.72
2023-02-19T22:38:47.563Z,74.24
2023-02-19T22:41:15.595Z,74.92
2023-02-19T22:43:44.773Z,73.24
2023-02-19T22:46:16.422Z,73.93
2023-02-19T22:48:44.037Z,72.54
2023-02-19T22:51:13.358Z,74.24
2023-02-19T22:53:45.545Z,73.82
2023-02-19T22:56:14.264Z,73.78
2023-02-19T22:58:42.353Z,74.19
2023-02-19T23:01:11.736Z,74.92
2023-02-19T23:03:46.530Z,75.48
2023-02-19T23:06:14.646Z,75.37
2023-02-19T23:08:43.219Z,73.71
2023-02-19T23:11:11.096Z,74.20
2023-02-19T23:13:38.676Z,74.17
2023-02-19T23:16:06.391Z,74.31
2023-02-19T23:18:35.257Z,74.73
2023-02-19T23:21:02.769Z,75.13
2023-02-19T23:23:30.298Z,74.88
2023-02-19T23:25:57.958Z,73.75
2023-02-19T23:28:25.535Z,73.70
2023-02-19T23:30:53.096Z,75.70
2023-02-19T23:33:20.635Z,74.99
2023-02-19T23:35:49.445Z,76.62
2023-02-19T23:38:16.906Z,76.34
2023-02-19T23:40:45.290Z,75.90
2023-02-19T23:43:12.777Z,76.91
2023-02-19T23:45:40.354Z,77.78
2023-02-19T23:48:08.188Z,78.23
2023-02-19T23:50:35.593Z,79.95
2023-02-19T23:53:04.739Z,79.27
2023-02-19T23:55:32.235Z,79.25
2023-02-19T23:57:59.812Z,78.58
